createdAt,value
2023-05-20T00:01:59.971Z,48.99
2023-05-20T00:04:27.944Z,49.49
2023-05-20T00:06:56.221Z,49.86
2023-05-20T00:09:25.528Z,50.00
2023-05-20T00:11:53.486Z,50.31
2023-05-20T00:14:21.582Z,50.15
2023-05-20T00:16:49.529Z,50.11
2023-05-20T00:19:17.651Z,50.32
2023-05-20T00:21:45.641Z,50.31
2023-05-20T00:24:13.565Z,50.05
2023-05-20T00:26:42.856Z,49.93
2023-05-20T00:29:10.770Z,49.95
2023-05-20T00:31:38.824Z,49.96
2023-05-20T00:34:06.759Z,49.92
2023-05-20T00:36:34.674Z,50.37
2023-05-20T00:39:02.576Z,49.92
2023-05-20T00:41:30.478Z,50.03
2023-05-20T00:43:59.747Z,50.28
2023-05-20T00:46:27.904Z,50.03
2023-05-20T00:48:55.880Z,50.08
2023-05-20T00:51:23.826Z,50.55
2023-05-20T00:53:51.750Z,50.27
2023-05-20T00:56:19.658Z,50.29
2023-05-20T00:58:47.626Z,50.19
2023-05-20T01:01:16.943Z,50.60
2023-05-20T01:03:44.938Z,50.29
2023-05-20T01:06:12.918Z,50.65
2023-05-20T01:08:41.103Z,50.73
2023-05-20T01:11:10.366Z,50.77
2023-05-20T01:13:40.506Z,50.71
2023-05-20T01:16:09.082Z,50.53
2023-05-20T01:18:38.610Z,50.39
2023-05-20T01:21:06.663Z,50.49
2023-05-20T01:23:39.933Z,50.64
2023-05-20T01:26:07.904Z,50.44
2023-05-20T01:28:36.029Z,50.48
2023-05-20T01:31:04.317Z,50.68
2023-05-20T01:33:32.278Z,50.85
2023-05-20T01:38:28.379Z,50.62
2023-05-20T01:40:57.720Z,50.81
2023-05-20T01:43:25.742Z,50.79
2023-05-20T01:45:54.068Z,50.68
2023-05-20T01:48:22.053Z,50.75
2023-05-20T01:50:49.957Z,50.83
2023-05-20T01:53:18.016Z,51.10
2023-05-20T01:55:46.022Z,50.84
2023-05-20T01:58:15.345Z,51.18
2023-05-20T02:00:43.305Z,50.88
2023-05-20T02:03:11.409Z,50.83
2023-05-20T02:05:39.512Z,50.87
2023-05-20T02:08:07.528Z,51.01
2023-05-20T02:10:35.494Z,51.24
2023-05-20T02:13:03.418Z,51.02
2023-05-20T02:15:32.848Z,51.02
2023-05-20T02:18:00.896Z,51.03
2023-05-20T02:20:29.258Z,51.30
2023-05-20T02:22:57.119Z,51.19
2023-05-20T02:25:25.190Z,51.01
2023-05-20T02:27:53.109Z,51.01
2023-05-20T02:30:21.094Z,51.17
2023-05-20T02:32:50.484Z,51.22
2023-05-20T02:35:18.382Z,51.20
2023-05-20T02:37:48.378Z,51.48
2023-05-20T02:40:16.731Z,51.63
2023-05-20T02:42:44.795Z,51.37
2023-05-20T02:45:12.752Z,51.47
2023-05-20T02:47:40.768Z,51.39
2023-05-20T02:50:10.640Z,51.57
2023-05-20T02:52:40.009Z,51.50
2023-05-20T02:55:08.828Z,51.77
2023-05-20T02:57:38.366Z,51.88
2023-05-20T03:00:07.788Z,52.02
2023-05-20T03:02:35.739Z,52.04
2023-05-20T03:05:05.258Z,51.82
2023-05-20T03:07:36.276Z,51.84
2023-05-20T03:10:05.025Z,51.80
2023-05-20T03:12:32.968Z,51.83
2023-05-20T03:15:01.247Z,51.99
2023-05-20T03:17:29.364Z,52.11
2023-05-20T03:19:57.283Z,52.15
2023-05-20T03:22:25.226Z,52.20
2023-05-20T03:24:54.560Z,51.96
2023-05-20T03:27:22.704Z,52.29
2023-05-20T03:29:51.412Z,52.09
2023-05-20T03:32:19.396Z,52.12
2023-05-20T03:34:47.561Z,52.52
2023-05-20T03:37:15.438Z,52.66
2023-05-20T03:39:43.353Z,52.86
2023-05-20T03:42:12.688Z,53.01
2023-05-20T03:44:40.838Z,53.35
2023-05-20T03:47:08.860Z,53.18
2023-05-20T03:49:36.751Z,53.57
2023-05-20T03:52:04.838Z,53.42
2023-05-20T03:54:32.753Z,53.16
2023-05-20T03:57:03.022Z,53.27
2023-05-20T03:59:32.505Z,53.28
2023-05-20T04:02:00.496Z,53.24
2023-05-20T04:04:28.433Z,53.00
2023-05-20T04:06:56.884Z,53.08
2023-05-20T04:09:24.824Z,53.16
2023-05-20T04:11:52.733Z,53.03
2023-05-20T04:14:20.655Z,53.14
2023-05-20T04:16:50.355Z,53.13
2023-05-20T04:19:19.592Z,53.50
2023-05-20T04:21:47.579Z,53.25
2023-05-20T04:24:15.487Z,53.24
2023-05-20T04:26:43.539Z,53.29
2023-05-20T04:29:11.955Z,53.51
2023-05-20T04:31:40.395Z,53.16
2023-05-20T04:34:09.766Z,53.09
2023-05-20T04:36:38.264Z,53.43
2023-05-20T04:39:06.303Z,53.22
2023-05-20T04:41:35.379Z,53.27
2023-05-20T04:44:03.924Z,53.29
2023-05-20T04:46:32.244Z,53.38
2023-05-20T04:49:00.222Z,53.33
2023-05-20T04:51:30.263Z,53.34
2023-05-20T04:53:59.140Z,53.32
2023-05-20T04:56:27.188Z,53.26
2023-05-20T04:58:56.146Z,53.29
2023-05-20T05:01:24.109Z,53.28
2023-05-20T05:03:52.010Z,53.34
2023-05-20T05:06:19.906Z,53.36
2023-05-20T05:08:49.195Z,53.41
2023-05-20T05:11:17.121Z,53.27
2023-05-20T05:13:45.072Z,53.40
2023-05-20T05:16:13.058Z,53.30
2023-05-20T05:18:41.038Z,53.10
2023-05-20T05:21:08.947Z,53.27
2023-05-20T05:23:36.952Z,53.37
2023-05-20T05:26:06.255Z,53.28
2023-05-20T05:28:34.219Z,53.24
2023-05-20T05:31:02.504Z,53.34
2023-05-20T05:33:30.571Z,53.23
2023-05-20T05:35:59.265Z,53.06
2023-05-20T05:38:27.417Z,53.09
2023-05-20T05:40:55.325Z,52.78
2023-05-20T05:43:24.632Z,53.18
2023-05-20T05:45:52.569Z,52.91
2023-05-20T05:48:20.603Z,52.97
2023-05-20T05:50:48.532Z,53.23
2023-05-20T05:53:16.530Z,52.89
2023-05-20T05:55:44.419Z,53.18
2023-05-20T05:58:12.435Z,53.17
2023-05-20T06:00:41.771Z,53.39
2023-05-20T06:03:09.841Z,53.36
2023-05-20T06:05:37.778Z,53.32
2023-05-20T06:08:06.323Z,53.34
2023-05-20T06:10:34.295Z,53.58
2023-05-20T06:13:02.225Z,53.04
2023-05-20T06:15:30.112Z,53.60
2023-05-20T06:17:59.548Z,53.36
2023-05-20T06:20:27.444Z,53.37
2023-05-20T06:22:55.386Z,53.57
2023-05-20T06:25:23.989Z,53.56
2023-05-20T06:27:51.905Z,53.63
2023-05-20T06:30:20.038Z,53.32
2023-05-20T06:32:47.995Z,53.17
2023-05-20T06:35:17.473Z,53.16
2023-05-20T06:37:45.412Z,53.41
2023-05-20T06:40:13.842Z,52.87
2023-05-20T06:42:42.147Z,53.22
2023-05-20T06:45:10.927Z,52.62
2023-05-20T06:47:38.877Z,52.57
2023-05-20T06:50:07.667Z,52.65
2023-05-20T06:52:36.940Z,52.37
2023-05-20T06:55:05.030Z,52.33
2023-05-20T06:57:32.955Z,52.28
2023-05-20T07:00:00.933Z,51.78
2023-05-20T07:02:29.323Z,52.08
2023-05-20T07:04:57.200Z,52.04
2023-05-20T07:07:25.112Z,51.47
2023-05-20T07:09:54.463Z,51.37
2023-05-20T07:12:22.364Z,51.48
2023-05-20T07:14:50.274Z,50.82
2023-05-20T07:17:18.301Z,50.65
2023-05-20T07:19:46.279Z,50.66
2023-05-20T07:22:14.294Z,50.30
2023-05-20T07:24:42.216Z,49.82
2023-05-20T07:27:11.467Z,49.60
2023-05-20T07:29:39.762Z,49.66
2023-05-20T07:32:10.094Z,49.40
2023-05-20T07:34:38.173Z,49.05
2023-05-20T07:37:06.608Z,48.44
2023-05-20T07:39:34.618Z,47.92
2023-05-20T07:42:02.551Z,47.82
2023-05-20T07:44:31.885Z,47.43
2023-05-20T07:46:59.829Z,47.58
2023-05-20T07:49:28.237Z,47.04
2023-05-20T07:51:56.213Z,46.73
2023-05-20T07:54:24.366Z,46.47
2023-05-20T07:56:52.341Z,46.08
2023-05-20T07:59:20.315Z,45.54
2023-05-20T08:01:49.746Z,45.58
2023-05-20T08:04:17.905Z,45.41
2023-05-20T08:06:46.004Z,45.05
2023-05-20T08:09:14.007Z,44.80
2023-05-20T08:11:41.913Z,44.84
2023-05-20T08:14:09.847Z,44.68
2023-05-20T08:16:37.881Z,44.40
2023-05-20T08:19:07.219Z,43.90
2023-05-20T08:21:35.781Z,43.70
2023-05-20T08:24:03.735Z,43.42
2023-05-20T08:26:31.641Z,42.57
2023-05-20T08:28:59.568Z,41.77
2023-05-20T08:31:28.178Z,40.99
2023-05-20T08:33:56.377Z,40.29
2023-05-20T08:36:25.855Z,39.64
2023-05-20T08:38:53.872Z,39.33
2023-05-20T08:41:22.793Z,38.78
2023-05-20T08:43:50.963Z,37.71
2023-05-20T08:46:18.984Z,37.18
2023-05-20T08:48:47.032Z,36.80
2023-05-20T08:51:14.934Z,36.23
2023-05-20T08:53:44.718Z,35.83
2023-05-20T08:56:12.784Z,35.98
2023-05-20T08:58:40.872Z,36.31
2023-05-20T09:01:09.513Z,36.37
2023-05-20T09:03:37.412Z,36.91
2023-05-20T09:06:05.906Z,36.38
2023-05-20T09:08:34.484Z,36.60
2023-05-20T09:11:03.885Z,36.74
2023-05-20T09:13:32.544Z,37.22
2023-05-20T09:16:01.558Z,37.16
2023-05-20T09:18:29.503Z,37.77
2023-05-20T09:20:57.579Z,37.39
2023-05-20T09:23:27.711Z,37.33
2023-05-20T09:25:55.746Z,37.70
2023-05-20T09:28:25.685Z,37.96
2023-05-20T09:30:59.016Z,37.99
2023-05-20T09:33:29.958Z,38.41
2023-05-20T09:36:07.068Z,38.26
2023-05-20T09:38:38.154Z,37.56
2023-05-20T09:41:08.233Z,37.83
2023-05-20T09:43:37.912Z,37.65
2023-05-20T09:46:06.052Z,37.17
2023-05-20T09:48:34.498Z,37.47
2023-05-20T09:51:02.603Z,36.88
2023-05-20T09:53:30.749Z,36.88
2023-05-20T09:55:59.142Z,37.11
2023-05-20T09:58:27.237Z,37.30
2023-05-20T10:00:56.462Z,37.64
2023-05-20T10:03:28.710Z,37.77
2023-05-20T10:06:04.020Z,37.84
2023-05-20T10:08:43.005Z,37.35
2023-05-20T10:11:16.757Z,37.28
2023-05-20T10:13:52.058Z,37.04
2023-05-20T10:16:30.568Z,36.76
2023-05-20T10:19:02.262Z,35.95
2023-05-20T10:21:30.190Z,36.09
2023-05-20T10:24:07.185Z,35.89
2023-05-20T10:26:38.332Z,35.99
2023-05-20T10:29:16.606Z,35.40
2023-05-20T10:31:50.136Z,35.24
2023-05-20T10:34:18.628Z,34.88
2023-05-20T10:36:48.149Z,35.00
2023-05-20T10:39:16.908Z,35.34
2023-05-20T10:41:44.850Z,35.36
2023-05-20T10:44:15.764Z,35.04
2023-05-20T10:49:24.152Z,33.86
2023-05-20T10:51:53.446Z,33.64
2023-05-20T10:54:21.720Z,33.92
2023-05-20T10:56:53.542Z,34.32
2023-05-20T10:59:22.751Z,33.76
2023-05-20T11:01:50.731Z,33.75
2023-05-20T11:04:20.645Z,33.05
2023-05-20T11:06:51.812Z,33.57
2023-05-20T11:09:19.755Z,33.16
2023-05-20T11:11:47.881Z,32.59
2023-05-20T11:14:17.325Z,32.62
2023-05-20T11:16:45.411Z,32.78
2023-05-20T11:19:16.146Z,32.36
2023-05-20T11:21:46.193Z,32.99
2023-05-20T11:24:14.123Z,33.96
2023-05-20T11:26:42.180Z,34.47
2023-05-20T11:29:10.104Z,34.52
2023-05-20T11:31:39.196Z,34.56
2023-05-20T11:34:07.226Z,33.83
2023-05-20T11:36:35.171Z,34.39
2023-05-20T11:39:05.642Z,32.33
2023-05-20T11:41:33.778Z,32.72
2023-05-20T11:44:01.702Z,32.18
2023-05-20T11:46:29.732Z,31.70
2023-05-20T11:48:58.262Z,31.59
2023-05-20T11:51:27.145Z,31.89
2023-05-20T11:53:55.455Z,30.91
2023-05-20T11:56:24.729Z,31.36
2023-05-20T11:58:52.902Z,31.01
2023-05-20T12:01:22.167Z,29.61
2023-05-20T12:03:51.433Z,29.19
2023-05-20T12:06:19.553Z,28.38
2023-05-20T12:08:47.583Z,29.00
2023-05-20T12:11:15.524Z,29.41
2023-05-20T12:13:44.789Z,28.82
2023-05-20T12:16:12.862Z,27.88
2023-05-20T12:18:40.908Z,28.21
2023-05-20T12:21:08.860Z,27.50
2023-05-20T12:23:36.883Z,26.47
2023-05-20T12:26:05.706Z,26.53
2023-05-20T12:28:33.860Z,26.74
2023-05-20T12:31:03.561Z,26.09
2023-05-20T12:33:31.533Z,23.18
2023-05-20T12:35:59.499Z,21.75
2023-05-20T12:38:28.141Z,22.93
2023-05-20T12:40:56.130Z,22.88
2023-05-20T12:43:24.327Z,21.42
2023-05-20T12:45:52.330Z,20.38
2023-05-20T12:48:21.752Z,20.22
2023-05-20T12:50:49.769Z,20.49
2023-05-20T12:53:17.647Z,20.27
2023-05-20T12:55:45.827Z,20.74
2023-05-20T12:58:13.759Z,20.76
2023-05-20T13:00:41.700Z,21.11
2023-05-20T13:03:09.918Z,20.47
2023-05-20T13:05:39.549Z,20.49
2023-05-20T13:08:09.182Z,20.89
2023-05-20T13:10:37.656Z,21.63
2023-05-20T13:13:06.090Z,21.78
2023-05-20T13:15:34.314Z,22.45
2023-05-20T13:18:03.473Z,22.44
2023-05-20T13:20:31.553Z,23.23
2023-05-20T13:23:00.911Z,23.42
2023-05-20T13:25:31.891Z,23.06
2023-05-20T13:27:59.938Z,23.20
2023-05-20T13:30:28.451Z,22.74
2023-05-20T13:32:56.665Z,21.79
2023-05-20T13:35:24.714Z,21.95
2023-05-20T13:37:52.814Z,21.71
2023-05-20T13:40:22.516Z,21.67
2023-05-20T13:42:50.451Z,22.32
2023-05-20T13:45:19.109Z,22.45
2023-05-20T13:47:47.360Z,22.31
2023-05-20T13:50:15.298Z,22.59
2023-05-20T13:52:43.261Z,22.45
2023-05-20T13:55:11.290Z,22.69
2023-05-20T13:57:40.607Z,22.41
2023-05-20T14:00:09.937Z,22.21
2023-05-20T14:02:37.961Z,22.32
2023-05-20T14:05:07.678Z,22.28
2023-05-20T14:07:35.748Z,22.35
2023-05-20T14:10:05.270Z,21.95
2023-05-20T14:12:36.361Z,21.97
2023-05-20T14:15:06.612Z,21.87
2023-05-20T14:17:34.586Z,21.57
2023-05-20T14:20:02.567Z,20.92
2023-05-20T14:22:30.877Z,21.23
2023-05-20T14:24:59.421Z,20.91
2023-05-20T14:27:27.686Z,21.45
2023-05-20T14:29:55.689Z,21.22
2023-05-20T14:32:25.144Z,21.19
2023-05-20T14:34:53.822Z,20.72
2023-05-20T14:37:22.954Z,20.64
2023-05-20T14:39:50.935Z,21.06
2023-05-20T14:42:18.915Z,21.00
2023-05-20T14:44:49.495Z,20.91
2023-05-20T14:47:19.349Z,20.73
2023-05-20T14:49:50.087Z,20.52
2023-05-20T14:52:18.076Z,19.94
2023-05-20T14:54:46.079Z,19.66
2023-05-20T14:57:15.883Z,19.52
2023-05-20T14:59:43.942Z,19.71
2023-05-20T15:02:14.768Z,20.11
2023-05-20T15:04:46.413Z,20.08
2023-05-20T15:07:16.068Z,20.42
2023-05-20T15:09:44.574Z,20.17
2023-05-20T15:12:12.524Z,20.28
2023-05-20T15:14:40.484Z,20.17
2023-05-20T15:17:08.475Z,20.44
2023-05-20T15:19:39.008Z,20.61
2023-05-20T15:22:09.115Z,20.23
2023-05-20T15:24:38.495Z,19.74
2023-05-20T15:27:07.003Z,20.25
2023-05-20T15:29:35.203Z,19.89
2023-05-20T15:32:03.377Z,20.07
2023-05-20T15:34:31.420Z,19.26
2023-05-20T15:36:59.363Z,19.61
2023-05-20T15:39:28.375Z,19.35
2023-05-20T15:41:59.520Z,18.84
2023-05-20T15:44:28.819Z,18.92
2023-05-20T15:46:56.908Z,19.18
2023-05-20T15:49:24.831Z,19.36
2023-05-20T15:52:02.879Z,19.39
2023-05-20T15:54:31.984Z,19.07
2023-05-20T15:57:02.656Z,18.98
2023-05-20T15:59:30.856Z,18.46
2023-05-20T16:01:58.897Z,18.78
2023-05-20T16:04:26.940Z,19.27
2023-05-20T16:06:55.023Z,19.11
2023-05-20T16:09:23.095Z,19.00
2023-05-20T16:11:51.131Z,18.85
2023-05-20T16:14:20.536Z,19.39
2023-05-20T16:16:48.633Z,19.33
2023-05-20T16:19:16.688Z,18.83
2023-05-20T16:21:44.776Z,19.01
2023-05-20T16:24:12.730Z,19.51
2023-05-20T16:26:40.641Z,18.89
2023-05-20T16:29:08.562Z,18.70
2023-05-20T16:31:37.968Z,18.81
2023-05-20T16:34:06.640Z,19.01
2023-05-20T16:36:34.590Z,19.21
2023-05-20T16:39:02.529Z,19.72
2023-05-20T16:41:30.761Z,19.42
2023-05-20T16:43:58.769Z,19.46
2023-05-20T16:46:26.683Z,19.71
2023-05-20T16:48:56.169Z,19.77
2023-05-20T16:51:24.182Z,19.50
2023-05-20T16:53:52.133Z,19.56
2023-05-20T16:56:21.877Z,19.47
2023-05-20T16:58:52.593Z,19.46
2023-05-20T17:01:21.299Z,19.29
2023-05-20T17:03:49.798Z,19.47
2023-05-20T17:06:19.177Z,19.42
2023-05-20T17:08:47.236Z,19.79
2023-05-20T17:11:15.669Z,19.18
2023-05-20T17:13:43.643Z,19.34
2023-05-20T17:16:12.145Z,19.52
2023-05-20T17:18:40.321Z,19.08
2023-05-20T17:21:08.235Z,18.98
2023-05-20T17:23:37.673Z,19.06
2023-05-20T17:26:05.875Z,19.19
2023-05-20T17:28:33.869Z,19.20
2023-05-20T17:31:01.798Z,19.61
2023-05-20T17:33:29.847Z,19.98
2023-05-20T17:35:57.788Z,20.32
2023-05-20T17:38:26.465Z,21.00
2023-05-20T17:40:55.740Z,21.10
2023-05-20T17:43:25.124Z,21.73
2023-05-20T17:45:53.164Z,22.31
2023-05-20T17:48:21.285Z,22.49
2023-05-20T17:50:49.232Z,23.00
2023-05-20T17:53:18.720Z,23.48
2023-05-20T17:55:49.490Z,23.85
2023-05-20T17:58:22.234Z,24.08
2023-05-20T18:00:50.223Z,24.33
2023-05-20T18:03:19.240Z,24.62
2023-05-20T18:05:47.668Z,24.77
2023-05-20T18:08:15.610Z,25.21
2023-05-20T18:10:43.587Z,25.39
2023-05-20T18:13:12.224Z,24.99
2023-05-20T18:15:41.658Z,24.66
2023-05-20T18:18:09.773Z,24.95
2023-05-20T18:20:37.890Z,24.82
2023-05-20T18:23:05.958Z,24.42
2023-05-20T18:25:33.864Z,24.09
2023-05-20T18:28:02.000Z,23.53
2023-05-20T18:30:29.942Z,23.59
2023-05-20T18:32:59.304Z,24.29
2023-05-20T18:35:27.248Z,24.55
2023-05-20T18:37:55.336Z,25.04
2023-05-20T18:40:23.198Z,25.52
2023-05-20T18:42:51.064Z,25.99
2023-05-20T18:45:19.149Z,26.40
2023-05-20T18:47:47.169Z,26.61
2023-05-20T18:50:16.593Z,26.88
2023-05-20T18:52:44.529Z,27.49
2023-05-20T18:55:12.582Z,27.37
2023-05-20T18:57:40.452Z,27.85
2023-05-20T19:00:12.440Z,28.10
2023-05-20T19:02:40.718Z,28.61
2023-05-20T19:05:10.018Z,28.91
2023-05-20T19:07:39.585Z,29.25
2023-05-20T19:10:08.944Z,29.33
2023-05-20T19:12:36.882Z,29.64
2023-05-20T19:15:05.920Z,29.83
2023-05-20T19:17:34.173Z,29.86
2023-05-20T19:20:02.592Z,30.16
2023-05-20T19:22:30.833Z,30.38
2023-05-20T19:25:00.515Z,30.49
2023-05-20T19:27:28.436Z,30.56
2023-05-20T19:29:56.482Z,30.73
2023-05-20T19:32:24.478Z,31.01
2023-05-20T19:34:52.461Z,31.25
2023-05-20T19:37:22.432Z,31.43
2023-05-20T19:39:51.182Z,31.76
2023-05-20T19:42:20.528Z,32.06
2023-05-20T19:44:48.471Z,32.45
2023-05-20T19:47:16.592Z,32.56
2023-05-20T19:49:44.589Z,32.86
2023-05-20T19:52:12.644Z,33.03
2023-05-20T19:54:42.971Z,33.30
2023-05-20T19:57:11.291Z,33.34
2023-05-20T19:59:40.978Z,33.40
2023-05-20T20:02:09.008Z,33.82
2023-05-20T20:04:37.499Z,33.96
2023-05-20T20:07:07.631Z,34.21
2023-05-20T20:09:36.224Z,34.49
2023-05-20T20:12:04.570Z,34.58
2023-05-20T20:14:32.459Z,34.97
2023-05-20T20:17:01.711Z,34.95
2023-05-20T20:19:29.761Z,35.28
2023-05-20T20:21:58.364Z,35.29
2023-05-20T20:24:27.061Z,35.27
2023-05-20T20:26:56.926Z,35.57
2023-05-20T20:29:25.026Z,35.38
2023-05-20T20:31:53.115Z,35.58
2023-05-20T20:34:22.700Z,36.05
2023-05-20T20:36:51.329Z,36.28
2023-05-20T20:39:19.984Z,36.50
2023-05-20T20:41:50.549Z,36.94
2023-05-20T20:44:20.961Z,36.68
2023-05-20T20:46:51.282Z,36.70
2023-05-20T20:49:19.302Z,37.29
2023-05-20T20:51:48.817Z,37.73
2023-05-20T20:54:16.845Z,37.72
2023-05-20T20:56:47.006Z,37.63
2023-05-20T20:59:16.001Z,38.01
2023-05-20T21:01:44.893Z,38.01
2023-05-20T21:04:14.115Z,38.42
2023-05-20T21:06:42.359Z,38.35
2023-05-20T21:09:11.751Z,38.33
2023-05-20T21:11:42.305Z,38.48
2023-05-20T21:14:10.245Z,38.59
2023-05-20T21:16:38.507Z,38.92
2023-05-20T21:19:06.715Z,38.73
2023-05-20T21:21:34.682Z,39.14
2023-05-20T21:24:02.669Z,38.84
2023-05-20T21:26:32.068Z,39.29
2023-05-20T21:29:00.055Z,39.30
2023-05-20T21:31:28.273Z,39.09
2023-05-20T21:33:56.415Z,39.34
2023-05-20T21:36:24.553Z,39.27
2023-05-20T21:38:52.527Z,39.30
2023-05-20T21:41:21.488Z,39.84
2023-05-20T21:43:50.908Z,39.97
2023-05-20T21:46:18.929Z,39.84
2023-05-20T21:48:47.082Z,39.78
2023-05-20T21:51:15.006Z,40.19
2023-05-20T21:53:43.145Z,40.22
2023-05-20T21:56:11.100Z,40.50
2023-05-20T21:58:41.721Z,40.34
2023-05-20T22:01:11.146Z,40.64
2023-05-20T22:03:39.945Z,40.49
2023-05-20T22:06:08.333Z,40.87
2023-05-20T22:08:36.307Z,40.80
2023-05-20T22:11:07.414Z,41.24
2023-05-20T22:13:36.392Z,41.32
2023-05-20T22:16:05.163Z,41.22
2023-05-20T22:18:34.921Z,41.33
2023-05-20T22:21:02.832Z,41.66
2023-05-20T22:23:30.752Z,42.00
2023-05-20T22:25:58.642Z,41.61
2023-05-20T22:28:26.514Z,41.57
2023-05-20T22:30:54.756Z,41.51
2023-05-20T22:33:24.403Z,41.87
2023-05-20T22:35:54.497Z,41.63
2023-05-20T22:38:22.414Z,42.10
2023-05-20T22:40:50.416Z,42.10
2023-05-20T22:43:18.340Z,42.54
2023-05-20T22:45:46.239Z,42.47
2023-05-20T22:48:14.363Z,42.89
2023-05-20T22:50:42.508Z,42.61
2023-05-20T22:53:11.931Z,42.71
2023-05-20T22:55:39.997Z,43.01
2023-05-20T22:58:08.676Z,42.81
2023-05-20T23:00:37.193Z,42.76
2023-05-20T23:03:05.220Z,43.17
2023-05-20T23:05:33.194Z,43.39
2023-05-20T23:08:01.419Z,43.12
2023-05-20T23:10:30.753Z,43.15
2023-05-20T23:12:58.634Z,43.36
2023-05-20T23:15:27.755Z,43.13
2023-05-20T23:17:56.373Z,43.05
2023-05-20T23:20:24.315Z,43.33
2023-05-20T23:22:52.334Z,43.23
2023-05-20T23:25:20.501Z,43.34
2023-05-20T23:27:49.886Z,43.16
2023-05-20T23:30:17.800Z,43.17
2023-05-20T23:32:45.778Z,43.28
2023-05-20T23:35:13.809Z,43.32
2023-05-20T23:37:42.249Z,43.49
2023-05-20T23:40:10.787Z,43.83
2023-05-20T23:42:38.738Z,43.34
2023-05-20T23:45:09.057Z,43.37
2023-05-20T23:47:37.879Z,43.43
2023-05-20T23:50:06.373Z,43.61
2023-05-20T23:52:34.251Z,43.47
2023-05-20T23:55:02.253Z,43.50
2023-05-20T23:57:30.139Z,43.42
2023-05-20T23:59:58.134Z,43.69
